Time;durP1;ratioP1;P1;durP2;ratioP2;P2;SDS_P1;SDS_P2;PMS_P1;PMS_P2;Temp;Humidity;BMP_temperature;BMP_pressure;BME280_temperature;BME280_humidity;BME280_pressure;Samples;Min_cycle;Max_cycle;Signal;HPM_P1;HPM_P2
2022/01/26 00:07:07;;;;;;;55.55;29.90;;;0.20;99.90;;;;;;1839029;77;21529;-74
2022/01/26 00:09:34;;;;;;;52.30;30.65;;;0.20;99.90;;;;;;1840209;77;21074;-74
2022/01/26 00:12:01;;;;;;;56.88;28.47;;;0.20;99.90;;;;;;1837360;77;21431;-73
2022/01/26 00:14:29;;;;;;;60.98;29.80;;;0.20;99.90;;;;;;1836398;78;21078;-73
2022/01/26 00:16:56;;;;;;;55.75;29.67;;;0.10;99.90;;;;;;1820192;78;21456;-74
2022/01/26 00:19:28;;;;;;;51.92;29.18;;;0.10;99.90;;;;;;1829988;77;21155;-73
2022/01/26 00:21:54;;;;;;;52.93;29.50;;;0.20;99.90;;;;;;1836427;77;21098;-74
2022/01/26 00:25:03;;;;;;;;;;;;;;;;;;;;;
2022/01/26 00:27:22;;;;;;;56.28;29.12;;;0.20;99.90;;;;;;1850072;75;21521;-73
2022/01/26 00:29:39;;;;;;;56.77;29.25;;;0.30;99.90;;;;;;1891277;75;21098;-74
2022/01/26 00:40:36;;;;;;;54.23;28.50;;;0.20;99.90;;;;;;1887697;75;21526;-74
2022/01/26 00:43:11;;;;;;;55.75;29.12;;;0.20;99.90;;;;;;1878458;73;21118;-74
2022/01/26 00:45:35;;;;;;;51.42;28.77;;;0.20;99.90;;;;;;1879645;75;21088;-73
2022/01/26 00:48:02;;;;;;;47.98;28.52;;;0.10;99.90;;;;;;1883355;74;21104;-72
2022/01/26 00:50:27;;;;;;;57.40;28.60;;;0.00;99.90;;;;;;1894711;75;21119;-73
2022/01/26 00:52:55;;;;;;;48.68;28.70;;;0.10;99.90;;;;;;1891872;75;21061;-73
2022/01/26 00:55:22;;;;;;;54.42;28.17;;;0.10;99.90;;;;;;1894039;75;21081;-73
2022/01/26 00:57:50;;;;;;;52.83;29.23;;;0.00;99.90;;;;;;1888971;75;21238;-72
2022/01/26 01:00:21;;;;;;;51.30;28.05;;;0.20;99.90;;;;;;1902811;75;21044;-74
2022/01/26 01:02:49;;;;;;;49.27;28.30;;;0.20;99.90;;;;;;1902848;75;21144;-72
2022/01/26 01:05:23;;;;;;;55.78;26.97;;;0.10;99.90;;;;;;1892993;75;21135;-74
2022/01/26 01:07:48;;;;;;;49.38;27.58;;;0.10;99.90;;;;;;1873465;75;21208;-73
2022/01/26 01:10:19;;;;;;;63.28;25.45;;;0.30;99.90;;;;;;1876922;75;21200;-73
2022/01/26 01:12:45;;;;;;;43.85;25.75;;;0.30;99.90;;;;;;1884006;75;21480;-72
2022/01/26 01:15:13;;;;;;;42.55;25.82;;;0.30;99.90;;;;;;1895446;75;21567;-73
2022/01/26 01:17:45;;;;;;;43.80;25.95;;;0.40;99.90;;;;;;1883569;75;21191;-72
2022/01/26 01:20:36;;;;;;;47.95;25.37;;;0.30;99.90;;;;;;1895459;75;21098;-73
2022/01/26 01:28:19;;;;;;;53.63;26.27;;;0.30;99.90;;;;;;1892622;75;21069;-71
2022/01/26 01:30:39;;;;;;;45.63;25.60;;;0.20;99.90;;;;;;1880378;74;21550;-73
2022/01/26 01:33:08;;;;;;;50.65;27.15;;;0.20;99.90;;;;;;1890324;74;21553;-71
2022/01/26 01:35:38;;;;;;;52.53;28.00;;;0.10;99.90;;;;;;1877006;75;21235;-72
2022/01/26 01:38:18;;;;;;;40.38;25.25;;;0.20;99.90;;;;;;1897653;75;21163;-73
2022/01/26 01:40:43;;;;;;;53.05;27.35;;;0.20;99.90;;;;;;1887759;75;21160;-73
2022/01/26 01:43:11;;;;;;;55.70;29.72;;;0.20;99.90;;;;;;1896100;75;21143;-73
2022/01/26 01:45:42;;;;;;;45.80;27.48;;;0.30;99.90;;;;;;1882998;75;21076;-72
2022/01/26 01:48:08;;;;;;;51.53;27.40;;;0.30;99.90;;;;;;1887475;74;21131;-73
2022/01/26 01:50:41;;;;;;;51.48;25.60;;;0.20;99.90;;;;;;1897437;75;21438;-74
2022/01/26 01:53:05;;;;;;;41.85;25.48;;;0.10;99.90;;;;;;1895738;75;21152;-73
2022/01/26 01:55:32;;;;;;;44.80;27.48;;;0.10;99.90;;;;;;1886870;75;21073;-71
2022/01/26 01:58:00;;;;;;;64.03;27.00;;;0.00;99.90;;;;;;1874060;75;21077;-72
2022/01/26 02:00:28;;;;;;;50.00;27.00;;;0.10;99.90;;;;;;1886787;75;21070;-75
2022/01/26 02:02:57;;;;;;;57.73;28.45;;;0.10;99.90;;;;;;1871975;75;21207;-73
2022/01/26 02:05:24;;;;;;;52.33;28.87;;;0.10;99.90;;;;;;1899191;75;21168;-72
2022/01/26 02:07:51;;;;;;;50.88;26.82;;;0.00;99.90;;;;;;1899252;75;21101;-73
2022/01/26 02:10:22;;;;;;;50.80;26.50;;;0.10;99.90;;;;;;1901621;75;21483;-73
2022/01/26 02:12:51;;;;;;;52.15;27.73;;;0.10;99.90;;;;;;1884688;75;21104;-73
2022/01/26 02:15:22;;;;;;;52.08;28.07;;;0.00;99.90;;;;;;1888935;75;21079;-73
2022/01/26 02:19:37;;;;;;;64.25;26.97;;;0.10;99.90;;;;;;1891342;74;21987;-72
2022/01/26 02:53:27;;;;;;;73.65;32.20;;;0.10;99.90;;;;;;1893796;75;21226;-73
2022/01/26 02:58:24;;;;;;;70.20;33.55;;;0.10;99.90;;;;;;1897533;75;21490;-72
2022/01/26 03:03:17;;;;;;;63.70;28.92;;;0.10;99.90;;;;;;1861533;74;21229;-72
2022/01/26 03:05:51;;;;;;;57.70;29.55;;;0.10;99.90;;;;;;1879638;75;21083;-73
2022/01/26 03:08:11;;;;;;;57.38;28.50;;;0.10;99.90;;;;;;1892995;75;21063;-72
2022/01/26 03:10:53;;;;;;;63.38;29.20;;;0.10;99.90;;;;;;1897563;75;21073;-71
2022/01/26 03:13:19;;;;;;;68.55;30.75;;;0.10;99.90;;;;;;1898905;75;21087;-72
2022/01/26 03:15:48;;;;;;;65.20;29.50;;;0.10;99.90;;;;;;1884754;74;21540;-74
2022/01/26 03:18:49;;;;;;;82.70;30.85;;;0.10;99.90;;;;;;1878992;75;21087;-73
2022/01/26 03:20:45;;;;;;;67.80;28.60;;;0.10;99.90;;;;;;1878139;75;21161;-73
2022/01/26 03:28:58;;;;;;;69.15;31.35;;;0.10;99.90;;;;;;1891945;75;21139;-73
2022/01/26 03:33:55;;;;;;;71.17;29.87;;;0.00;99.90;;;;;;1884982;75;21549;-73
2022/01/26 03:36:19;;;;;;;65.83;29.15;;;0.00;99.90;;;;;;1874980;75;21064;-73
2022/01/26 03:38:59;;;;;;;72.00;29.70;;;0.10;99.90;;;;;;1886470;75;21062;-73
2022/01/26 03:41:30;;;;;;;75.95;30.30;;;0.10;99.90;;;;;;1897875;74;21131;-74
2022/01/26 03:43:44;;;;;;;66.25;30.82;;;0.10;99.90;;;;;;1903170;74;21143;-72
2022/01/26 03:46:12;;;;;;;81.30;32.58;;;0.20;99.90;;;;;;1891530;75;21156;-71
2022/01/26 03:48:39;;;;;;;81.47;33.20;;;0.10;99.90;;;;;;1873125;75;21148;-72
2022/01/26 03:51:06;;;;;;;85.17;31.50;;;0.10;99.90;;;;;;1884607;75;21108;-73
2022/01/26 03:53:33;;;;;;;77.10;31.90;;;0.20;99.90;;;;;;1896720;75;21066;-71
2022/01/26 03:56:01;;;;;;;68.25;32.08;;;0.30;99.90;;;;;;1888209;75;21246;-73
2022/01/26 03:58:28;;;;;;;65.12;29.85;;;0.30;99.90;;;;;;1888952;75;21489;-73
2022/01/26 04:00:55;;;;;;;66.70;30.20;;;0.30;99.90;;;;;;1900863;75;21075;-72
2022/01/26 04:03:23;;;;;;;55.58;28.40;;;0.40;99.90;;;;;;1883036;75;21552;-73
2022/01/26 04:05:50;;;;;;;54.45;29.02;;;0.30;99.90;;;;;;1885123;75;21156;-73
2022/01/26 04:08:24;;;;;;;62.23;28.10;;;0.30;99.90;;;;;;1889636;75;21262;-72
2022/01/26 04:13:24;;;;;;;54.58;28.75;;;0.40;99.90;;;;;;1901948;75;21224;-73
2022/01/26 04:15:52;;;;;;;64.10;28.00;;;0.40;99.90;;;;;;1891995;75;21189;-73
2022/01/26 04:18:25;;;;;;;59.25;28.23;;;0.40;99.90;;;;;;1897250;75;21073;-72
2022/01/26 04:20:52;;;;;;;58.30;27.05;;;0.40;99.90;;;;;;1892354;75;21423;-72
2022/01/26 04:24:23;;;;;;;60.90;27.75;;;0.40;99.90;;;;;;1890527;75;21103;-73
2022/01/26 04:25:56;;;;;;;59.23;27.10;;;0.40;99.90;;;;;;1887232;75;21427;-72
2022/01/26 04:28:34;;;;;;;62.00;28.00;;;0.40;99.90;;;;;;1892791;75;21478;-72
2022/01/26 04:30:52;;;;;;;54.65;26.37;;;0.40;99.90;;;;;;1886502;75;21077;-71
2022/01/26 04:33:20;;;;;;;56.68;25.75;;;0.40;99.90;;;;;;1880427;75;21073;-71
2022/01/26 04:35:48;;;;;;;55.58;26.10;;;0.40;99.90;;;;;;1894674;75;21128;-72
2022/01/26 04:38:28;;;;;;;55.52;26.37;;;0.40;99.90;;;;;;1894050;75;21078;-72
2022/01/26 04:41:02;;;;;;;54.15;26.37;;;0.40;99.90;;;;;;1890007;75;21154;-72
2022/01/26 04:43:24;;;;;;;59.10;26.68;;;0.40;99.90;;;;;;1899538;75;21467;-73
2022/01/26 04:45:48;;;;;;;56.68;25.40;;;0.40;99.90;;;;;;1881026;75;21098;-73
2022/01/26 04:48:16;;;;;;;67.32;25.80;;;0.50;99.90;;;;;;1875595;75;21109;-71
2022/01/26 04:50:43;;;;;;;44.27;24.30;;;0.50;99.90;;;;;;1890867;75;21069;-73
2022/01/26 04:53:10;;;;;;;48.63;25.68;;;0.50;99.90;;;;;;1885547;75;21062;-74
2022/01/26 04:55:37;;;;;;;48.98;25.92;;;0.50;99.90;;;;;;1884789;75;21128;-73
2022/01/26 04:58:05;;;;;;;49.88;25.17;;;0.40;99.90;;;;;;1876703;75;21170;-73
2022/01/26 05:00:32;;;;;;;45.38;23.90;;;0.50;99.90;;;;;;1880368;75;21073;-71
2022/01/26 05:02:59;;;;;;;52.60;24.23;;;0.60;99.90;;;;;;1887850;75;21057;-73
2022/01/26 05:05:27;;;;;;;59.50;25.75;;;0.50;99.90;;;;;;1902529;75;21064;-74
2022/01/26 05:07:54;;;;;;;45.30;23.77;;;0.60;99.90;;;;;;1890668;75;21143;-73
2022/01/26 05:10:21;;;;;;;41.55;22.05;;;0.40;99.90;;;;;;1886920;75;21071;-73
2022/01/26 05:12:49;;;;;;;46.90;23.22;;;0.50;99.90;;;;;;1889967;75;21139;-72
2022/01/26 05:15:20;;;;;;;49.85;24.10;;;0.50;99.90;;;;;;1884746;75;21157;-73
2022/01/26 05:17:45;;;;;;;39.63;22.80;;;0.40;99.90;;;;;;1898271;75;21487;-73
2022/01/26 05:20:13;;;;;;;49.00;24.40;;;0.50;99.90;;;;;;1900615;75;21075;-73
2022/01/26 05:22:41;;;;;;;42.50;22.98;;;0.50;99.90;;;;;;1883850;75;21050;-72
2022/01/26 05:25:10;;;;;;;48.70;24.67;;;0.60;99.90;;;;;;1887404;75;21074;-73
2022/01/26 05:27:38;;;;;;;46.68;24.02;;;0.50;99.90;;;;;;1881998;75;21560;-73
2022/01/26 05:30:07;;;;;;;47.55;24.35;;;0.40;99.90;;;;;;1880951;75;21439;-73
2022/01/26 05:32:34;;;;;;;54.58;25.12;;;0.40;99.90;;;;;;1880657;75;21150;-73
2022/01/26 05:35:01;;;;;;;54.30;24.87;;;0.40;99.90;;;;;;1897207;75;21061;-74
2022/01/26 05:37:29;;;;;;;49.20;24.37;;;0.40;99.90;;;;;;1880091;75;21143;-72
2022/01/26 05:39:56;;;;;;;50.90;25.40;;;0.50;99.90;;;;;;1891860;75;21047;-72
2022/01/26 05:42:24;;;;;;;46.85;23.32;;;0.60;99.90;;;;;;1882800;75;21043;-74
2022/01/26 05:44:53;;;;;;;47.85;24.52;;;0.70;99.90;;;;;;1900699;75;21264;-73
2022/01/26 05:47:20;;;;;;;49.85;24.32;;;0.70;99.90;;;;;;1884098;73;21042;-73
2022/01/26 05:49:48;;;;;;;54.03;26.30;;;0.50;99.90;;;;;;1881844;75;21113;-73
2022/01/26 05:52:15;;;;;;;52.65;25.75;;;0.30;99.90;;;;;;1885634;75;21448;-73
2022/01/26 05:54:42;;;;;;;55.35;25.05;;;0.20;99.90;;;;;;1888812;75;21070;-71
2022/01/26 05:57:10;;;;;;;54.45;25.32;;;0.30;99.90;;;;;;1886119;75;21447;-73
2022/01/26 05:59:37;;;;;;;43.55;24.27;;;0.30;99.90;;;;;;1873354;75;21131;-74
2022/01/26 06:02:05;;;;;;;46.48;25.02;;;0.20;99.90;;;;;;1892228;75;21079;-72
2022/01/26 06:04:32;;;;;;;47.05;26.37;;;0.20;99.90;;;;;;1902861;75;21459;-73
2022/01/26 06:06:59;;;;;;;53.80;25.30;;;0.20;99.90;;;;;;1902857;75;21145;-73
2022/01/26 06:09:27;;;;;;;60.12;27.02;;;0.20;99.90;;;;;;1893579;75;21133;-72
2022/01/26 06:11:54;;;;;;;50.67;25.85;;;0.10;99.90;;;;;;1892612;75;21082;-72
2022/01/26 06:14:21;;;;;;;57.60;26.42;;;0.10;99.90;;;;;;1880109;75;21047;-71
2022/01/26 06:16:48;;;;;;;60.28;27.55;;;0.10;99.90;;;;;;1892028;75;21155;-73
2022/01/26 06:19:16;;;;;;;66.40;29.20;;;0.10;99.90;;;;;;1874662;75;21127;-72
2022/01/26 06:21:43;;;;;;;60.48;28.27;;;0.00;99.90;;;;;;1890505;75;21432;-74
2022/01/26 06:24:10;;;;;;;58.02;27.15;;;0.00;99.90;;;;;;1901011;75;21070;-74
2022/01/26 06:26:40;;;;;;;67.80;28.85;;;0.10;99.90;;;;;;1902664;75;21487;-73
2022/01/26 06:29:07;;;;;;;63.17;28.12;;;0.10;99.90;;;;;;1882958;75;21172;-73
2022/01/26 06:31:34;;;;;;;62.20;28.57;;;0.20;99.90;;;;;;1888742;75;21061;-73
2022/01/26 06:34:03;;;;;;;59.13;27.42;;;0.10;99.90;;;;;;1896384;74;21065;-74
2022/01/26 06:36:30;;;;;;;58.33;28.60;;;0.10;99.90;;;;;;1876737;75;21501;-74
2022/01/26 06:38:59;;;;;;;60.17;28.65;;;0.10;99.90;;;;;;1882951;75;21131;-74
2022/01/26 06:41:28;;;;;;;58.90;27.40;;;0.10;99.90;;;;;;1881841;75;21180;-73
2022/01/26 06:44:06;;;;;;;63.48;29.23;;;0.00;99.90;;;;;;1890158;75;21435;-74
2022/01/26 06:46:50;;;;;;;63.42;28.87;;;-0.10;99.90;;;;;;1888981;75;21591;-75
2022/01/26 06:49:28;;;;;;;74.20;28.42;;;-0.10;99.90;;;;;;1893843;75;21475;-75
2022/01/26 06:51:32;;;;;;;74.85;29.35;;;-0.10;99.90;;;;;;1870939;74;21035;-71
2022/01/26 06:53:59;;;;;;;73.25;30.08;;;0.00;99.90;;;;;;1889278;75;21540;-72
2022/01/26 06:56:27;;;;;;;64.72;30.20;;;-0.10;99.90;;;;;;1896994;75;21197;-74
2022/01/26 06:58:54;;;;;;;69.12;29.87;;;-0.10;99.90;;;;;;1899266;75;21172;-72
2022/01/26 07:01:21;;;;;;;63.58;29.05;;;0.00;99.90;;;;;;1871601;75;21152;-79
2022/01/26 07:03:49;;;;;;;66.80;29.00;;;0.00;99.90;;;;;;1875601;75;21038;-77
2022/01/26 07:06:16;;;;;;;68.92;29.40;;;0.00;99.90;;;;;;1892207;75;21536;-75
2022/01/26 07:08:45;;;;;;;60.55;29.52;;;0.00;99.90;;;;;;1897770;75;21071;-75
2022/01/26 07:11:12;;;;;;;65.62;27.73;;;0.10;99.90;;;;;;1887786;75;21069;-76
2022/01/26 07:13:41;;;;;;;60.20;26.17;;;0.20;99.90;;;;;;1878614;75;21035;-76
2022/01/26 07:21:38;;;;;;;43.15;24.18;;;0.20;99.90;;;;;;1878354;75;21487;-79
2022/01/26 07:24:06;;;;;;;46.83;24.55;;;0.10;99.90;;;;;;1892839;75;21066;-78
2022/01/26 07:26:34;;;;;;;47.55;26.77;;;0.20;99.90;;;;;;1885262;75;21187;-79
2022/01/26 07:29:07;;;;;;;42.58;23.90;;;0.10;99.90;;;;;;1890164;75;21132;-79
2022/01/26 07:31:35;;;;;;;46.15;23.12;;;0.10;99.90;;;;;;1893736;74;21493;-80
2022/01/26 07:34:02;;;;;;;47.98;23.22;;;0.20;99.90;;;;;;1893807;74;21106;-80
2022/01/26 07:36:32;;;;;;;54.85;22.85;;;0.20;99.90;;;;;;1878167;75;21038;-79
2022/01/26 07:39:06;;;;;;;47.15;23.50;;;0.30;99.90;;;;;;1860564;75;21111;-77
2022/01/26 07:41:29;;;;;;;47.10;23.73;;;0.20;99.90;;;;;;1881306;75;21074;-79
2022/01/26 07:43:56;;;;;;;41.70;22.95;;;0.40;99.90;;;;;;1887655;75;21399;-82
2022/01/26 07:46:24;;;;;;;41.63;22.90;;;0.40;99.90;;;;;;1877449;75;21070;-80
2022/01/26 07:48:52;;;;;;;45.83;23.35;;;0.30;99.90;;;;;;1895278;75;21111;-79
2022/01/26 07:51:19;;;;;;;40.78;21.93;;;0.40;99.90;;;;;;1882752;75;21132;-75
2022/01/26 07:53:47;;;;;;;44.67;23.38;;;0.40;99.90;;;;;;1894079;75;21137;-76
2022/01/26 07:56:14;;;;;;;44.33;22.30;;;0.50;99.90;;;;;;1897546;75;21065;-75
2022/01/26 07:58:42;;;;;;;48.42;21.75;;;0.50;99.90;;;;;;1893980;75;21063;-80
2022/01/26 08:01:10;;;;;;;44.67;21.80;;;0.50;99.90;;;;;;1902476;75;21079;-80
2022/01/26 08:03:37;;;;;;;42.70;21.93;;;0.50;99.90;;;;;;1902613;75;21509;-80
2022/01/26 08:06:05;;;;;;;36.40;20.92;;;0.50;99.90;;;;;;1891342;75;21050;-79
2022/01/26 08:08:32;;;;;;;37.65;21.27;;;0.60;99.90;;;;;;1879595;75;21054;-77
2022/01/26 08:11:00;;;;;;;42.45;21.33;;;0.50;99.90;;;;;;1890761;75;21131;-77
2022/01/26 08:13:28;;;;;;;44.73;22.02;;;0.50;99.90;;;;;;1881885;75;21128;-77
2022/01/26 08:15:57;;;;;;;44.75;22.35;;;0.50;99.90;;;;;;1880716;75;21038;-78
2022/01/26 08:18:27;;;;;;;37.03;20.77;;;0.50;99.90;;;;;;1876095;75;21062;-78
2022/01/26 08:20:54;;;;;;;53.95;22.98;;;0.50;99.90;;;;;;1896010;75;21053;-78
2022/01/26 08:23:22;;;;;;;43.68;21.85;;;0.60;99.90;;;;;;1884804;75;21070;-77
2022/01/26 08:25:51;;;;;;;46.30;25.05;;;0.60;99.90;;;;;;1867197;75;21135;-78
2022/01/26 08:28:30;;;;;;;41.23;22.95;;;0.50;99.90;;;;;;1878229;75;21490;-76
2022/01/26 08:30:47;;;;;;;37.93;22.35;;;0.40;99.90;;;;;;1887520;75;21165;-77
2022/01/26 08:33:26;;;;;;;45.67;23.42;;;0.40;99.90;;;;;;1898128;75;21044;-77
2022/01/26 08:35:56;;;;;;;48.00;23.32;;;0.30;99.90;;;;;;1885751;74;21125;-78
2022/01/26 08:38:30;;;;;;;47.48;24.77;;;0.40;99.90;;;;;;1890181;75;21058;-78
2022/01/26 08:40:58;;;;;;;47.27;23.05;;;0.40;99.90;;;;;;1888841;74;21200;-78
2022/01/26 08:43:25;;;;;;;40.20;23.92;;;0.60;99.90;;;;;;1874668;75;21497;-77
2022/01/26 08:45:52;;;;;;;49.63;24.63;;;0.70;99.90;;;;;;1898900;75;21145;-77
2022/01/26 08:48:20;;;;;;;39.60;21.07;;;0.80;99.90;;;;;;1897989;75;21061;-76
2022/01/26 08:50:47;;;;;;;45.98;22.48;;;0.60;99.90;;;;;;1883433;75;21206;-75
2022/01/26 08:53:14;;;;;;;36.60;21.20;;;0.50;99.90;;;;;;1889374;75;21038;-75
2022/01/26 08:55:42;;;;;;;49.85;22.22;;;0.50;99.90;;;;;;1896094;75;21127;-76
2022/01/26 08:58:09;;;;;;;45.48;22.65;;;0.50;99.90;;;;;;1892196;75;21214;-75
2022/01/26 09:00:37;;;;;;;40.23;22.95;;;0.50;99.90;;;;;;1886616;75;21121;-77
2022/01/26 09:03:05;;;;;;;42.80;24.12;;;0.50;99.90;;;;;;1886439;75;21059;-77
2022/01/26 09:05:32;;;;;;;43.85;23.40;;;0.40;99.90;;;;;;1902561;75;21082;-76
2022/01/26 09:08:00;;;;;;;42.03;23.87;;;0.30;99.90;;;;;;1876255;75;21120;-77
2022/01/26 09:10:29;;;;;;;44.00;22.98;;;0.40;99.90;;;;;;1900071;74;21087;-77
2022/01/26 09:12:56;;;;;;;44.50;23.18;;;0.50;99.90;;;;;;1901464;75;21439;-76
2022/01/26 09:15:29;;;;;;;46.18;23.77;;;0.50;99.90;;;;;;1900497;75;21044;-75
2022/01/26 09:17:56;;;;;;;43.70;23.47;;;0.50;99.90;;;;;;1902472;75;21420;-76
2022/01/26 09:20:24;;;;;;;51.02;24.20;;;0.60;99.90;;;;;;1901638;75;21160;-77
2022/01/26 09:22:52;;;;;;;45.55;25.75;;;0.70;99.90;;;;;;1884453;75;21136;-76
2022/01/26 09:25:19;;;;;;;46.83;24.55;;;0.60;99.90;;;;;;1898097;75;21131;-76
2022/01/26 09:27:46;;;;;;;51.13;24.72;;;0.80;99.90;;;;;;1881900;75;21070;-77
2022/01/26 09:30:14;;;;;;;46.75;23.77;;;0.90;99.90;;;;;;1880787;75;21132;-79
2022/01/26 09:32:41;;;;;;;50.17;25.62;;;0.90;99.90;;;;;;1885762;75;21451;-77
2022/01/26 09:35:08;;;;;;;42.67;24.57;;;0.90;99.90;;;;;;1890309;75;21148;-78
2022/01/26 09:37:36;;;;;;;44.83;24.80;;;0.80;99.90;;;;;;1875904;75;21109;-76
2022/01/26 09:40:04;;;;;;;44.75;24.55;;;0.80;99.90;;;;;;1880261;75;21188;-77
2022/01/26 09:42:34;;;;;;;44.83;24.85;;;0.80;99.90;;;;;;1883206;75;21075;-77
2022/01/26 09:45:03;;;;;;;49.95;26.25;;;0.90;99.90;;;;;;1862126;75;21066;-78
2022/01/26 09:47:30;;;;;;;61.60;25.62;;;0.90;99.90;;;;;;1894732;75;21129;-78
2022/01/26 09:49:57;;;;;;;44.23;24.63;;;0.80;99.90;;;;;;1879019;75;21057;-77
2022/01/26 09:52:34;;;;;;;47.10;24.98;;;0.80;99.90;;;;;;1890793;75;21447;-77
2022/01/26 09:54:59;;;;;;;60.75;27.60;;;0.70;99.90;;;;;;1885258;75;21099;-76
2022/01/26 09:57:27;;;;;;;48.92;25.82;;;0.50;99.90;;;;;;1887685;75;21441;-74
2022/01/26 09:59:55;;;;;;;58.30;26.17;;;0.60;99.90;;;;;;1890246;75;21160;-74
2022/01/26 10:02:30;;;;;;;49.65;26.77;;;0.50;99.90;;;;;;1897135;75;21145;-75
2022/01/26 10:05:02;;;;;;;52.62;27.07;;;0.50;99.90;;;;;;1892895;75;21064;-76
2022/01/26 10:15:37;;;;;;;46.90;24.05;;;0.60;99.90;;;;;;1896776;75;21186;-75
2022/01/26 10:18:15;;;;;;;43.48;23.98;;;0.70;99.90;;;;;;1891001;75;21173;-76
2022/01/26 10:20:54;;;;;;;54.15;25.02;;;0.70;99.90;;;;;;1890613;75;21140;-75
2022/01/26 10:23:27;;;;;;;49.98;24.60;;;0.60;99.90;;;;;;1879697;75;21132;-74
2022/01/26 10:26:02;;;;;;;51.80;23.47;;;0.50;99.90;;;;;;1873985;75;21074;-75
2022/01/26 10:28:49;;;;;;;41.28;22.62;;;0.50;99.90;;;;;;1877973;75;21067;-73
2022/01/26 10:31:28;;;;;;;40.10;22.85;;;0.60;99.90;;;;;;1888273;75;21094;-75
2022/01/26 10:34:04;;;;;;;41.75;24.43;;;0.40;99.90;;;;;;1885442;75;21113;-76
2022/01/26 10:37:04;;;;;;;42.55;24.37;;;0.60;99.90;;;;;;1876703;75;21144;-77
2022/01/26 10:39:35;;;;;;;42.80;22.80;;;0.60;99.90;;;;;;1882399;75;21051;-76
2022/01/26 10:42:04;;;;;;;44.13;24.70;;;0.60;99.90;;;;;;1885310;75;21446;-74
2022/01/26 10:44:48;;;;;;;62.03;25.43;;;0.60;99.90;;;;;;1893833;74;21094;-74
2022/01/26 10:47:10;;;;;;;50.08;25.40;;;0.50;99.90;;;;;;1886231;75;21087;-74
2022/01/26 10:52:21;;;;;;;43.75;24.07;;;0.70;99.90;;;;;;1883495;75;21161;-75
2022/01/26 10:54:42;;;;;;;45.55;22.98;;;0.80;99.90;;;;;;1892063;75;21490;-75
2022/01/26 10:57:11;;;;;;;44.38;22.05;;;0.80;99.90;;;;;;1880133;75;21143;-75
2022/01/26 10:59:43;;;;;;;40.52;21.85;;;0.60;99.90;;;;;;1875910;75;21161;-75
2022/01/26 11:02:11;;;;;;;51.53;24.30;;;0.60;99.90;;;;;;1884542;75;21116;-75
2022/01/26 11:04:41;;;;;;;54.13;23.73;;;0.40;99.90;;;;;;1879881;75;21443;-75
2022/01/26 11:07:10;;;;;;;38.80;22.20;;;0.50;99.90;;;;;;1876279;74;21039;-75
2022/01/26 11:09:39;;;;;;;44.23;23.00;;;0.60;99.90;;;;;;1884541;74;21057;-77
2022/01/26 11:12:08;;;;;;;50.10;23.87;;;0.80;99.90;;;;;;1890227;75;21443;-76
2022/01/26 11:14:43;;;;;;;39.55;22.77;;;0.80;99.90;;;;;;1886080;75;21074;-76
2022/01/26 11:17:13;;;;;;;35.95;22.22;;;0.90;99.90;;;;;;1887430;75;21065;-74
2022/01/26 11:19:46;;;;;;;42.50;24.15;;;0.90;99.90;;;;;;1899470;75;21132;-76
2022/01/26 11:22:14;;;;;;;46.00;24.07;;;1.00;99.90;;;;;;1862553;74;21065;-75
2022/01/26 11:24:47;;;;;;;50.98;24.82;;;1.20;99.90;;;;;;1875050;75;21069;-75
2022/01/26 11:27:16;;;;;;;53.92;24.02;;;1.10;99.90;;;;;;1889970;75;21464;-78
2022/01/26 11:29:46;;;;;;;50.95;23.40;;;1.20;99.90;;;;;;1898588;75;21149;-79
2022/01/26 11:32:25;;;;;;;42.55;23.22;;;1.10;99.90;;;;;;1893361;75;21095;-78
2022/01/26 11:34:50;;;;;;;43.23;24.10;;;1.20;99.90;;;;;;1895933;75;21282;-78
2022/01/26 11:37:19;;;;;;;42.05;23.47;;;1.30;99.90;;;;;;1895772;75;21067;-77
2022/01/26 11:45:35;;;;;;;40.70;22.70;;;1.30;99.90;;;;;;1885937;75;21125;-77
2022/01/26 11:48:12;;;;;;;38.83;22.95;;;1.30;99.90;;;;;;1886799;75;21088;-76
2022/01/26 11:50:48;;;;;;;40.28;23.22;;;1.10;99.90;;;;;;1885093;75;21051;-77
2022/01/26 11:53:11;;;;;;;38.35;22.27;;;1.10;99.90;;;;;;1876995;75;21103;-77
2022/01/26 11:55:42;;;;;;;53.15;25.10;;;1.30;99.90;;;;;;1887116;75;21079;-77
2022/01/26 11:58:18;;;;;;;45.40;23.85;;;1.40;99.90;;;;;;1897936;75;21197;-77
2022/01/26 12:01:06;;;;;;;43.48;23.27;;;1.40;99.90;;;;;;1889942;75;21489;-77
2022/01/26 12:03:28;;;;;;;47.53;24.20;;;1.30;99.90;;;;;;1877938;75;21078;-76
2022/01/26 12:05:57;;;;;;;41.15;24.75;;;1.50;99.90;;;;;;1882427;75;21066;-77
2022/01/26 12:08:33;;;;;;;46.75;25.37;;;1.50;99.90;;;;;;1888888;75;21086;-77
2022/01/26 12:11:01;;;;;;;42.35;23.60;;;1.50;99.90;;;;;;1899100;75;21490;-78
2022/01/26 12:13:30;;;;;;;48.08;25.02;;;1.60;99.90;;;;;;1887215;75;21156;-76
2022/01/26 12:16:10;;;;;;;40.43;24.20;;;1.60;99.90;;;;;;1890616;75;21482;-80
2022/01/26 12:32:41;;;;;;;49.55;25.60;;;1.70;99.90;;;;;;1882776;75;21207;-78
2022/01/26 12:45:25;;;;;;;45.50;23.50;;;1.90;99.90;;;;;;1892445;75;21504;-77
2022/01/26 12:47:54;;;;;;;46.83;24.32;;;1.80;99.90;;;;;;1877365;75;21202;-76
2022/01/26 12:50:21;;;;;;;45.67;23.02;;;1.80;99.90;;;;;;1894196;75;21144;-75
2022/01/26 12:52:54;;;;;;;42.35;23.02;;;1.60;99.90;;;;;;1896624;75;21110;-76
2022/01/26 12:55:23;;;;;;;46.70;22.48;;;1.50;99.90;;;;;;1900483;75;21155;-78
2022/01/26 12:57:51;;;;;;;45.45;23.45;;;1.40;99.90;;;;;;1894145;75;21070;-77
2022/01/26 13:00:18;;;;;;;53.95;25.57;;;1.50;99.90;;;;;;1887708;75;21048;-80
2022/01/26 13:02:45;;;;;;;47.67;23.80;;;1.50;99.90;;;;;;1872751;75;21144;-77
2022/01/26 13:05:15;;;;;;;43.15;23.25;;;1.50;99.90;;;;;;1887297;75;21132;-77
2022/01/26 13:07:42;;;;;;;51.73;25.35;;;1.50;99.90;;;;;;1878455;75;21066;-76
2022/01/26 13:10:19;;;;;;;46.65;24.02;;;1.30;99.90;;;;;;1894595;75;21195;-77
2022/01/26 13:12:46;;;;;;;45.10;24.37;;;1.30;99.90;;;;;;1884050;74;21079;-78
2022/01/26 13:15:24;;;;;;;50.60;24.77;;;1.30;99.90;;;;;;1876062;75;21215;-77
2022/01/26 13:17:57;;;;;;;45.30;23.07;;;1.40;99.90;;;;;;1877273;75;21090;-79
2022/01/26 13:23:09;;;;;;;41.65;23.38;;;1.50;99.90;;;;;;1874134;75;21419;-76
2022/01/26 13:34:20;;;;;;;52.67;22.48;;;1.30;99.90;;;;;;1888286;75;21119;-75
2022/01/26 13:39:28;;;;;;;51.85;21.80;;;1.20;99.90;;;;;;1902361;75;21051;-74
2022/01/26 13:41:55;;;;;;;40.33;21.27;;;1.30;99.90;;;;;;1892978;75;21482;-75
2022/01/26 13:44:39;;;;;;;42.45;20.23;;;1.30;99.90;;;;;;1892279;75;21174;-76
2022/01/26 13:47:04;;;;;;;35.20;20.62;;;1.30;99.90;;;;;;1895326;75;21098;-76
2022/01/26 13:49:22;;;;;;;39.23;20.70;;;1.30;99.90;;;;;;1895960;74;21104;-76
2022/01/26 13:59:33;;;;;;;33.98;19.20;;;1.30;99.90;;;;;;1889700;75;21185;-79
2022/01/26 14:01:55;;;;;;;37.63;19.73;;;1.40;99.90;;;;;;1886044;75;21083;-76
2022/01/26 14:04:22;;;;;;;35.78;18.85;;;1.40;99.90;;;;;;1886726;75;21151;-76
2022/01/26 14:06:51;;;;;;;36.25;20.30;;;1.40;99.90;;;;;;1887445;75;21129;-80
2022/01/26 14:09:18;;;;;;;35.95;20.00;;;1.40;99.90;;;;;;1895709;75;21077;-78
2022/01/26 14:11:48;;;;;;;40.50;21.20;;;1.40;99.90;;;;;;1880757;75;21047;-78
2022/01/26 14:14:23;;;;;;;42.23;21.33;;;1.40;99.90;;;;;;1899060;73;21096;-77
2022/01/26 14:16:55;;;;;;;42.60;20.60;;;1.20;99.90;;;;;;1876106;74;21055;-78
2022/01/26 14:19:29;;;;;;;40.98;21.75;;;1.30;99.90;;;;;;1903117;74;21048;-75
2022/01/26 14:22:05;;;;;;;40.55;21.23;;;1.30;99.90;;;;;;1890441;75;21075;-75
2022/01/26 14:26:49;;;;;;;42.78;20.95;;;1.20;99.90;;;;;;1881406;75;21473;-77
2022/01/26 14:29:30;;;;;;;39.95;20.15;;;1.20;99.90;;;;;;1898767;75;21108;-77
2022/01/26 14:32:03;;;;;;;41.10;20.27;;;1.10;99.90;;;;;;1892855;75;21156;-76
2022/01/26 15:08:44;;;;;;;29.75;15.08;;;0.70;99.90;;;;;;1880187;75;21258;-76
2022/01/26 15:10:05;;;;;;;33.83;15.53;;;0.50;99.90;;;;;;1886008;75;21174;-76
2022/01/26 15:31:46;;;;;;;35.15;16.82;;;0.50;99.90;;;;;;1894112;75;21219;-75
2022/01/26 15:33:37;;;;;;;31.73;17.20;;;0.40;99.90;;;;;;1900536;75;21071;-75
2022/01/26 15:49:43;;;;;;;35.30;17.35;;;0.40;99.90;;;;;;1873896;75;21070;-76
2022/01/26 15:52:08;;;;;;;31.50;17.07;;;0.40;99.90;;;;;;1883345;75;21103;-75
2022/01/26 16:08:29;;;;;;;25.35;13.95;;;0.40;99.90;;;;;;1880505;75;21071;-73
2022/01/26 16:28:10;;;;;;;25.80;14.18;;;0.50;99.90;;;;;;1808040;79;21160;-76
2022/01/26 16:35:41;;;;;;;32.25;16.05;;;0.60;99.90;;;;;;1898820;75;21087;-75
2022/01/26 17:11:24;;;;;;;29.60;16.37;;;0.50;99.90;;;;;;1884135;76;21120;-74
2022/01/26 17:25:58;;;;;;;30.25;16.02;;;0.60;99.90;;;;;;1884174;76;21120;-74
2022/01/26 17:46:40;;;;;;;33.50;17.77;;;0.50;99.90;;;;;;1884319;76;21116;-75
2022/01/26 18:05:51;;;;;;;30.97;18.07;;;0.50;99.90;;;;;;1884240;76;21124;-74
2022/01/26 18:15:35;;;;;;;34.80;18.35;;;0.50;99.90;;;;;;1884242;76;21529;-75